Time;durP1;ratioP1;P1;durP2;ratioP2;P2;SDS_P1;SDS_P2;PMS_P1;PMS_P2;Temp;Humidity;BMP_temperature;BMP_pressure;BME280_temperature;BME280_humidity;BME280_pressure;Samples;Min_cycle;Max_cycle;Signal;HPM_P1;HPM_P2
2022/07/06 00:02:13;;;;;;;1.47;0.70;;;;;;;18.37;47.45;102024.13;4990334;28;96979;-46
2022/07/06 00:04:38;;;;;;;1.17;0.80;;;;;;;18.35;47.53;102027.41;4995829;28;97096;-47
2022/07/06 00:07:04;;;;;;;0.70;0.70;;;;;;;18.33;47.50;102020.84;4997916;28;110812;-48
2022/07/06 00:09:29;;;;;;;3.33;0.70;;;;;;;18.29;47.44;102017.56;4986783;28;97552;-46
2022/07/06 00:11:55;;;;;;;2.10;0.70;;;;;;;18.22;47.56;102032.03;4995130;28;96941;-46
2022/07/06 00:14:20;;;;;;;1.00;0.60;;;;;;;18.14;47.43;102026.25;4999752;28;96945;-47
2022/07/06 00:16:46;;;;;;;3.73;0.80;;;;;;;18.07;47.45;102017.66;4995555;28;97388;-46
2022/07/06 00:19:11;;;;;;;1.20;0.80;;;;;;;18.05;47.66;102020.19;4997309;28;98428;-47
2022/07/06 00:21:37;;;;;;;2.73;0.87;;;;;;;18.06;47.83;102022.47;4994644;28;96787;-46
2022/07/06 00:24:02;;;;;;;2.87;0.93;;;;;;;18.07;47.87;102020.44;4996410;28;96975;-46
2022/07/06 00:26:28;;;;;;;0.67;0.67;;;;;;;18.06;47.91;102024.50;4989133;28;97247;-46
2022/07/06 00:28:53;;;;;;;0.70;0.60;;;;;;;18.06;47.83;102019.69;4998274;28;97372;-48
2022/07/06 00:31:19;;;;;;;1.43;0.73;;;;;;;18.04;47.82;102024.25;4997782;28;97061;-46
2022/07/06 00:33:44;;;;;;;0.97;0.63;;;;;;;18.03;47.94;102022.72;4999069;28;97078;-47
2022/07/06 00:36:10;;;;;;;2.10;0.80;;;;;;;18.02;47.95;102024.00;4997033;28;96860;-47
2022/07/06 00:38:35;;;;;;;0.73;0.70;;;;;;;17.97;47.84;102015.13;4994737;28;97204;-47
2022/07/06 00:41:00;;;;;;;0.97;0.70;;;;;;;17.95;47.92;102014.16;4996210;28;96944;-47
2022/07/06 00:43:26;;;;;;;1.57;0.80;;;;;;;17.93;47.96;102016.69;4996318;28;96903;-47
2022/07/06 00:45:51;;;;;;;1.17;0.50;;;;;;;17.91;48.03;102019.97;4990993;28;97482;-47
2022/07/06 00:48:17;;;;;;;0.97;0.50;;;;;;;17.89;47.87;102013.41;5000229;28;97147;-47
2022/07/06 00:50:42;;;;;;;1.20;0.70;;;;;;;17.87;48.10;102022.28;4990638;28;97228;-48
2022/07/06 00:53:08;;;;;;;0.80;0.60;;;;;;;17.83;48.19;102016.19;4998068;28;96990;-46
2022/07/06 00:55:41;;;;;;;2.43;0.97;;;;;;;17.84;48.51;102017.69;4995726;28;97820;-47
2022/07/06 00:58:08;;;;;;;0.67;0.50;;;;;;;17.83;48.15;102019.00;4999307;28;97210;-47
2022/07/06 01:00:34;;;;;;;1.10;0.60;;;;;;;17.83;48.14;102026.56;4995762;28;96452;-47
2022/07/06 01:03:00;;;;;;;1.63;0.60;;;;;;;17.81;48.16;102024.31;4993124;28;97064;-47
2022/07/06 01:05:26;;;;;;;2.40;0.60;;;;;;;17.79;48.30;102021.28;4995462;28;97502;-49
2022/07/06 01:07:53;;;;;;;1.80;1.03;;;;;;;17.77;48.33;102023.81;4992940;28;97724;-47
2022/07/06 01:10:20;;;;;;;1.00;0.60;;;;;;;17.72;48.46;102015.47;4995140;28;97345;-47
2022/07/06 01:12:47;;;;;;;1.40;0.70;;;;;;;17.71;48.41;102022.31;4998425;28;97061;-47
2022/07/06 01:15:16;;;;;;;1.13;0.60;;;;;;;17.70;48.50;102024.34;4987202;28;96689;-47
2022/07/06 01:17:42;;;;;;;2.33;0.70;;;;;;;17.67;48.28;102025.34;4989169;28;97321;-47
2022/07/06 01:20:08;;;;;;;0.67;0.50;;;;;;;17.64;48.33;102020.81;4998868;28;97099;-48
2022/07/06 01:22:33;;;;;;;2.00;0.87;;;;;;;17.59;48.46;102024.34;4999699;28;97315;-46
2022/07/06 01:24:58;;;;;;;0.77;0.57;;;;;;;17.58;48.48;102038.78;4994013;28;98064;-47
2022/07/06 01:27:24;;;;;;;1.67;0.50;;;;;;;17.58;48.48;102027.66;4997884;28;97330;-47
2022/07/06 01:29:49;;;;;;;0.97;0.60;;;;;;;17.55;48.48;102023.84;4997473;28;97099;-47
2022/07/06 01:32:14;;;;;;;1.27;0.63;;;;;;;17.52;48.50;102022.06;4995933;28;97050;-46
2022/07/06 01:34:40;;;;;;;4.10;1.00;;;;;;;17.52;48.63;102018.53;4997595;28;97126;-47
2022/07/06 01:37:05;;;;;;;0.60;0.60;;;;;;;17.50;48.61;102019.03;5000690;28;97235;-47
2022/07/06 01:39:31;;;;;;;3.60;0.73;;;;;;;17.48;48.73;102021.53;4993149;28;96911;-47
2022/07/06 01:41:56;;;;;;;0.73;0.57;;;;;;;17.46;48.62;102021.28;4997299;28;96861;-47
2022/07/06 01:44:21;;;;;;;1.00;0.50;;;;;;;17.41;48.66;102024.81;4999434;28;102844;-46
2022/07/06 01:46:47;;;;;;;2.03;0.80;;;;;;;17.38;48.68;102028.63;4997800;28;102134;-46
2022/07/06 01:49:12;;;;;;;0.70;0.60;;;;;;;17.36;48.73;102028.38;4983524;28;97276;-47
2022/07/06 01:51:37;;;;;;;0.90;0.77;;;;;;;17.34;48.79;102022.56;4996048;28;97045;-47
2022/07/06 01:54:03;;;;;;;1.00;0.60;;;;;;;17.32;48.79;102025.06;4996453;28;96679;-47
2022/07/06 01:56:28;;;;;;;1.83;0.50;;;;;;;17.31;49.00;102029.13;4994849;28;97527;-47
2022/07/06 01:58:53;;;;;;;1.73;0.70;;;;;;;17.30;48.98;102033.19;4993447;28;97141;-47
2022/07/06 02:01:20;;;;;;;1.00;0.60;;;;;;;17.29;48.96;102040.03;5000353;28;97301;-47
2022/07/06 02:03:46;;;;;;;1.70;0.60;;;;;;;17.27;49.02;102017.50;4995638;28;97889;-49
2022/07/06 02:06:12;;;;;;;1.57;0.67;;;;;;;17.26;49.01;102015.97;5001401;28;96654;-46
2022/07/06 02:08:39;;;;;;;1.73;0.80;;;;;;;17.24;49.14;102024.06;4992773;28;97055;-48
2022/07/06 02:11:05;;;;;;;1.00;0.60;;;;;;;17.23;49.10;102017.75;4991360;28;103022;-46
2022/07/06 02:13:31;;;;;;;2.80;1.03;;;;;;;17.22;49.18;102018.25;4989990;28;97441;-47
2022/07/06 02:15:56;;;;;;;0.70;0.57;;;;;;;17.21;49.21;102014.72;4989274;28;97305;-47
2022/07/06 02:18:21;;;;;;;1.83;0.70;;;;;;;17.20;49.18;102018.00;4997142;28;97217;-47
2022/07/06 02:20:47;;;;;;;1.73;0.60;;;;;;;17.18;49.16;102017.75;4999829;28;97002;-48
2022/07/06 02:23:13;;;;;;;0.97;0.70;;;;;;;17.17;49.27;102014.22;4998544;28;96803;-47
2022/07/06 02:25:38;;;;;;;1.73;0.87;;;;;;;17.16;49.27;102015.50;4991805;28;96773;-47
2022/07/06 02:28:04;;;;;;;0.80;0.63;;;;;;;17.14;49.31;102011.69;4994861;28;96966;-47
2022/07/06 02:30:30;;;;;;;0.57;0.40;;;;;;;17.13;49.32;102015.72;4991634;28;96999;-47
2022/07/06 02:32:55;;;;;;;1.73;0.60;;;;;;;17.12;49.33;102017.00;4992137;28;97117;-47
2022/07/06 02:35:21;;;;;;;1.00;0.80;;;;;;;17.09;49.29;102010.44;4992706;28;96756;-46
2022/07/06 02:37:46;;;;;;;2.00;1.07;;;;;;;17.07;49.65;102026.09;4994906;28;96828;-47
2022/07/06 02:40:12;;;;;;;1.10;0.57;;;;;;;17.03;49.47;102017.25;4992186;28;97200;-46
2022/07/06 02:42:37;;;;;;;1.50;0.60;;;;;;;17.04;49.46;102013.19;4996015;28;97880;-46
2022/07/06 02:45:03;;;;;;;2.20;0.80;;;;;;;17.02;49.54;102010.16;4997971;28;96980;-47
2022/07/06 02:47:29;;;;;;;1.03;0.63;;;;;;;17.03;49.56;102017.25;4995094;28;97064;-47
2022/07/06 02:49:54;;;;;;;3.40;0.60;;;;;;;17.04;49.54;102027.09;4989153;28;97226;-46
2022/07/06 02:52:20;;;;;;;1.93;0.70;;;;;;;17.04;49.56;102024.31;4995194;28;96813;-46
2022/07/06 02:54:45;;;;;;;0.60;0.53;;;;;;;17.05;49.63;102023.06;4989402;28;97097;-46
2022/07/06 02:57:10;;;;;;;2.30;0.63;;;;;;;17.04;49.72;102024.31;4980815;28;97050;-47
2022/07/06 02:59:36;;;;;;;0.77;0.57;;;;;;;17.07;49.72;102023.31;4992854;28;99055;-46
2022/07/06 03:02:03;;;;;;;2.20;0.83;;;;;;;17.08;49.73;102027.63;4990597;28;101816;-46
2022/07/06 03:04:29;;;;;;;2.80;0.60;;;;;;;17.08;49.67;102025.59;4994923;28;96834;-47
2022/07/06 03:06:54;;;;;;;1.47;0.80;;;;;;;17.08;49.75;102031.13;4996423;28;97402;-45
2022/07/06 03:09:19;;;;;;;1.40;0.70;;;;;;;17.10;49.78;102027.88;4996673;28;96723;-46
2022/07/06 03:11:45;;;;;;;1.33;0.60;;;;;;;17.11;49.81;102034.94;4992721;28;107821;-47
2022/07/06 03:14:10;;;;;;;1.33;0.70;;;;;;;17.11;49.85;102037.72;4994757;28;97161;-47
2022/07/06 03:16:35;;;;;;;3.23;0.70;;;;;;;17.12;49.88;102030.91;4992762;28;97059;-46
2022/07/06 03:19:01;;;;;;;2.60;0.70;;;;;;;17.11;49.91;102029.38;4994115;28;96758;-46
2022/07/06 03:21:26;;;;;;;0.80;0.50;;;;;;;17.10;49.80;102033.44;4993803;28;97028;-46
2022/07/06 03:23:52;;;;;;;2.63;0.60;;;;;;;17.10;49.86;102033.44;4996675;28;97782;-48
2022/07/06 03:26:17;;;;;;;1.30;0.60;;;;;;;17.11;49.79;102034.94;4996847;28;96947;-46
2022/07/06 03:28:43;;;;;;;2.50;0.73;;;;;;;17.12;50.01;102030.91;4999404;28;97301;-47
2022/07/06 03:31:08;;;;;;;0.93;0.60;;;;;;;17.13;49.99;102026.84;4999146;28;97019;-46
2022/07/06 03:33:33;;;;;;;1.13;1.00;;;;;;;17.13;50.02;102033.19;4996167;28;97139;-47
2022/07/06 03:35:59;;;;;;;3.20;1.20;;;;;;;17.14;50.01;102031.16;4997257;28;97152;-47
2022/07/06 03:38:24;;;;;;;0.93;0.73;;;;;;;17.15;50.16;102036.22;4995937;28;96831;-46
2022/07/06 03:40:50;;;;;;;1.17;0.63;;;;;;;17.13;49.98;102032.41;4992643;28;97856;-46
2022/07/06 03:43:15;;;;;;;0.70;0.60;;;;;;;17.10;50.02;102033.44;4992428;28;97589;-47
2022/07/06 03:45:40;;;;;;;0.80;0.50;;;;;;;17.11;50.13;102035.72;4999590;28;97343;-46
2022/07/06 03:48:06;;;;;;;1.27;0.70;;;;;;;17.13;49.99;102032.41;4993852;28;97070;-47
2022/07/06 03:50:31;;;;;;;1.43;0.70;;;;;;;17.14;50.15;102037.50;4990016;28;97256;-46
2022/07/06 03:52:57;;;;;;;0.77;0.60;;;;;;;17.17;50.28;102033.69;4995733;28;97214;-46
2022/07/06 03:55:22;;;;;;;5.30;0.90;;;;;;;17.20;50.29;102043.03;4999353;28;96693;-48
2022/07/06 03:57:48;;;;;;;2.23;0.70;;;;;;;17.22;50.26;102037.72;4993113;28;97024;-47
2022/07/06 04:00:14;;;;;;;0.80;0.60;;;;;;;17.24;50.44;102040.78;4989432;28;97978;-46
2022/07/06 04:02:39;;;;;;;1.43;0.80;;;;;;;17.27;50.38;102044.56;4995188;28;97105;-46
2022/07/06 04:05:05;;;;;;;0.70;0.50;;;;;;;17.28;50.35;102041.28;4994583;28;97023;-46
2022/07/06 04:07:30;;;;;;;1.53;0.80;;;;;;;17.31;50.30;102051.41;4993653;28;96848;-47
2022/07/06 04:09:56;;;;;;;0.60;0.60;;;;;;;17.33;50.30;102036.97;4999537;28;97278;-46
2022/07/06 04:12:21;;;;;;;2.03;1.10;;;;;;;17.35;50.31;102040.78;4998871;28;97259;-47
2022/07/06 04:14:47;;;;;;;0.90;0.67;;;;;;;17.38;50.27;102041.78;4999565;28;96945;-49
2022/07/06 04:19:56;;;;;;;1.00;0.50;;;;;;;17.41;50.29;102047.09;4995874;28;100631;-47
2022/07/06 04:22:21;;;;;;;1.07;0.50;;;;;;;17.44;50.41;102043.31;4995787;28;97404;-47
2022/07/06 04:24:47;;;;;;;1.33;0.77;;;;;;;17.46;50.42;102046.34;4974437;28;97127;-49
2022/07/06 04:27:12;;;;;;;0.90;0.57;;;;;;;17.49;50.45;102041.78;4997843;28;97068;-46
2022/07/06 04:29:37;;;;;;;2.67;0.60;;;;;;;17.51;50.42;102051.19;4994037;28;97202;-46
2022/07/06 04:32:03;;;;;;;3.17;1.10;;;;;;;17.53;50.47;102043.09;4992369;28;96809;-47
2022/07/06 04:34:28;;;;;;;2.33;0.93;;;;;;;17.56;50.43;102042.06;5000669;28;97564;-48
2022/07/06 04:36:54;;;;;;;1.00;0.70;;;;;;;17.58;50.48;102047.88;4973964;28;96993;-46
2022/07/06 04:39:19;;;;;;;6.80;0.90;;;;;;;17.61;50.60;102055.22;4994147;28;98010;-46
2022/07/06 04:41:44;;;;;;;2.40;0.87;;;;;;;17.63;50.58;102055.47;4997094;28;96766;-46
2022/07/06 04:44:10;;;;;;;1.37;0.50;;;;;;;17.65;50.57;102047.34;4998585;28;97268;-46
2022/07/06 04:46:35;;;;;;;0.90;0.57;;;;;;;17.67;50.57;102044.09;4998672;28;96888;-48
2022/07/06 04:49:00;;;;;;;0.87;0.87;;;;;;;17.70;50.62;102045.84;4993905;28;97100;-46
2022/07/06 04:51:26;;;;;;;2.10;0.83;;;;;;;17.72;50.62;102040.53;4975163;28;97294;-47
2022/07/06 04:53:51;;;;;;;2.33;0.90;;;;;;;17.74;50.73;102041.53;4996214;28;97184;-47
2022/07/06 04:56:16;;;;;;;1.10;0.60;;;;;;;17.76;50.55;102038.22;5001066;28;97013;-46
2022/07/06 04:58:42;;;;;;;1.00;0.60;;;;;;;17.79;50.69;102032.41;5001624;28;97330;-46
2022/07/06 05:01:07;;;;;;;2.80;0.90;;;;;;;17.81;50.80;102035.44;4994532;28;97833;-46
2022/07/06 05:03:36;;;;;;;6.90;0.80;;;;;;;17.85;50.56;102041.50;4998265;28;96718;-47
2022/07/06 05:06:04;;;;;;;3.53;0.70;;;;;;;17.90;50.57;102045.56;4995739;28;96978;-46
2022/07/06 05:08:30;;;;;;;2.97;0.90;;;;;;;17.93;50.59;102050.84;4998657;28;98391;-46
2022/07/06 05:10:55;;;;;;;1.47;0.50;;;;;;;17.94;50.57;102052.38;4993782;28;97882;-45
2022/07/06 05:13:20;;;;;;;2.00;0.90;;;;;;;17.99;50.62;102050.84;4995599;28;97110;-46
2022/07/06 05:15:46;;;;;;;2.53;0.90;;;;;;;18.02;50.56;102054.66;4999893;28;97334;-47
2022/07/06 05:18:11;;;;;;;1.20;0.67;;;;;;;18.07;50.62;102051.06;4993833;28;97167;-47
2022/07/06 05:20:37;;;;;;;2.30;0.80;;;;;;;18.11;50.55;102046.75;4999835;28;97241;-46
2022/07/06 05:23:02;;;;;;;3.93;1.00;;;;;;;18.14;50.61;102050.56;4994407;28;97223;-47
2022/07/06 05:25:28;;;;;;;4.87;0.77;;;;;;;18.16;50.52;102048.78;4997660;28;97219;-46
2022/07/06 05:27:53;;;;;;;3.13;0.80;;;;;;;18.18;50.37;102035.09;4995051;28;97086;-47
2022/07/06 05:30:19;;;;;;;1.30;1.00;;;;;;;18.21;50.18;102041.66;4993264;28;97124;-46
2022/07/06 05:32:44;;;;;;;0.97;0.60;;;;;;;18.23;50.34;102039.91;4995736;28;97101;-47
2022/07/06 05:35:10;;;;;;;1.63;0.80;;;;;;;18.26;50.43;102040.91;4997726;28;97145;-46
2022/07/06 05:37:35;;;;;;;2.13;0.70;;;;;;;18.32;50.49;102041.63;5002061;28;97472;-46
2022/07/06 05:40:01;;;;;;;2.63;0.83;;;;;;;18.36;50.40;102042.13;4998276;28;97165;-46
2022/07/06 05:42:26;;;;;;;3.20;0.77;;;;;;;18.38;50.47;102059.84;4998302;28;97057;-46
2022/07/06 05:44:55;;;;;;;0.93;0.67;;;;;;;18.41;50.49;102053.22;4992363;28;97473;-46
2022/07/06 05:50:11;;;;;;;3.03;0.70;;;;;;;18.40;50.47;102045.38;4992822;28;101366;-48
2022/07/06 05:52:37;;;;;;;2.80;1.10;;;;;;;18.47;50.28;102056.03;4993684;28;97083;-47
2022/07/06 05:55:03;;;;;;;2.03;0.70;;;;;;;18.52;50.31;102052.47;4994599;28;97359;-47
2022/07/06 05:57:28;;;;;;;1.00;0.73;;;;;;;18.55;50.14;102045.84;4995108;28;97868;-48
2022/07/06 05:59:54;;;;;;;1.40;0.70;;;;;;;18.59;50.00;102057.50;4997319;28;96968;-48
2022/07/06 06:02:19;;;;;;;2.90;0.67;;;;;;;18.62;50.19;102050.91;4996599;28;96997;-47
2022/07/06 06:04:44;;;;;;;3.60;0.83;;;;;;;18.66;49.95;102048.59;4993630;28;96808;-47
2022/07/06 06:07:10;;;;;;;0.60;0.50;;;;;;;18.70;49.98;102051.84;4991952;28;97690;-46
2022/07/06 06:09:35;;;;;;;2.80;0.67;;;;;;;18.73;49.93;102059.19;4990204;28;98523;-46
2022/07/06 06:12:01;;;;;;;2.03;0.80;;;;;;;18.74;49.94;102055.13;4989726;28;96693;-47
2022/07/06 06:14:26;;;;;;;1.73;0.70;;;;;;;18.78;49.77;102061.22;4993233;28;98285;-48
2022/07/06 06:16:52;;;;;;;1.00;0.60;;;;;;;18.83;49.73;102056.88;4992845;28;97456;-46
2022/07/06 06:19:17;;;;;;;3.23;0.50;;;;;;;18.88;49.68;102061.66;4994913;28;97456;-47
2022/07/06 06:21:42;;;;;;;1.40;0.70;;;;;;;18.93;49.71;102067.22;4996480;28;97278;-47
2022/07/06 06:24:07;;;;;;;0.50;0.50;;;;;;;18.99;49.63;102067.16;4992654;28;97404;-46
2022/07/06 06:26:33;;;;;;;1.00;0.90;;;;;;;19.04;49.58;102069.94;4994143;28;96957;-46
2022/07/06 06:28:58;;;;;;;0.80;0.70;;;;;;;19.08;49.29;102069.63;4992715;28;98625;-49
2022/07/06 06:31:24;;;;;;;3.67;0.43;;;;;;;19.13;49.42;102071.63;4994623;28;97419;-48
2022/07/06 06:33:49;;;;;;;1.20;0.60;;;;;;;19.18;49.47;102068.03;4988647;28;97156;-47
2022/07/06 06:36:14;;;;;;;1.97;0.73;;;;;;;19.24;49.23;102071.56;4993765;28;96761;-50
2022/07/06 06:38:40;;;;;;;2.93;0.93;;;;;;;19.27;49.13;102093.59;4993052;28;97393;-47
2022/07/06 06:41:05;;;;;;;0.70;0.50;;;;;;;19.31;49.11;102082.91;4991164;28;97066;-47
2022/07/06 06:43:31;;;;;;;3.37;0.90;;;;;;;19.34;49.07;102084.69;4993638;28;97350;-47
2022/07/06 06:45:56;;;;;;;3.77;0.70;;;;;;;19.38;49.01;102081.63;4992704;28;97371;-47
2022/07/06 06:48:22;;;;;;;2.53;0.67;;;;;;;19.43;48.82;102089.19;4992992;28;97084;-46
2022/07/06 06:50:47;;;;;;;1.73;0.90;;;;;;;19.50;48.86;102079.50;4995932;28;96737;-48
2022/07/06 06:53:12;;;;;;;0.97;0.63;;;;;;;19.56;48.88;102080.22;4991224;28;97379;-46
2022/07/06 06:55:38;;;;;;;1.80;0.80;;;;;;;19.61;48.88;102091.34;4998185;28;97442;-46
2022/07/06 06:58:03;;;;;;;2.20;0.77;;;;;;;19.67;48.69;102092.03;4993926;28;97487;-48
2022/07/06 07:00:29;;;;;;;1.10;0.50;;;;;;;19.70;48.52;102091.00;4998775;28;96960;-46
2022/07/06 07:02:55;;;;;;;4.83;1.10;;;;;;;19.74;48.31;102091.47;4996029;28;96865;-47
2022/07/06 07:05:20;;;;;;;2.50;0.80;;;;;;;19.80;48.32;102083.03;4996306;28;97082;-47
2022/07/06 07:07:45;;;;;;;1.90;0.50;;;;;;;19.86;48.22;102094.91;4998093;28;97395;-47
2022/07/06 07:10:11;;;;;;;2.73;0.60;;;;;;;19.93;48.22;102085.97;4996931;28;97082;-46
2022/07/06 07:12:43;;;;;;;0.93;0.47;;;;;;;19.98;47.68;102090.75;4995555;28;100095;-48
2022/07/06 07:15:09;;;;;;;1.90;0.50;;;;;;;20.10;47.69;102097.72;5000164;28;97538;-47
2022/07/06 07:17:34;;;;;;;5.57;0.67;;;;;;;20.17;47.47;102088.75;4993274;28;98322;-47
2022/07/06 07:20:00;;;;;;;0.93;0.60;;;;;;;20.24;47.14;102110.56;4992104;28;96938;-47
2022/07/06 07:22:25;;;;;;;0.97;0.73;;;;;;;20.27;47.06;102112.28;4990742;28;96750;-49
2022/07/06 07:24:50;;;;;;;1.13;0.67;;;;;;;20.31;46.80;102109.97;5000208;28;97314;-47
2022/07/06 07:27:16;;;;;;;1.13;0.43;;;;;;;20.39;46.84;102105.31;4998469;28;97498;-47
2022/07/06 07:29:41;;;;;;;2.90;0.73;;;;;;;20.47;46.85;102108.25;5000156;28;96868;-48
2022/07/06 07:32:06;;;;;;;1.77;0.50;;;;;;;20.52;46.46;102108.19;4996970;28;96722;-48
2022/07/06 07:34:32;;;;;;;5.90;0.90;;;;;;;20.57;46.23;102110.19;4996023;28;97449;-47
2022/07/06 07:36:57;;;;;;;1.73;0.87;;;;;;;20.62;46.38;102120.53;4995984;28;97821;-47
2022/07/06 07:39:23;;;;;;;0.87;0.50;;;;;;;20.64;45.81;102109.56;4995166;28;96925;-48
2022/07/06 07:41:50;;;;;;;2.60;0.73;;;;;;;20.71;46.11;102117.38;4994921;28;96712;-48
2022/07/06 07:44:15;;;;;;;3.33;0.50;;;;;;;20.76;45.91;102116.53;5001664;28;97301;-48
2022/07/06 07:46:41;;;;;;;1.43;0.50;;;;;;;20.77;45.75;102111.72;4990855;28;97091;-47
2022/07/06 07:49:07;;;;;;;3.33;0.50;;;;;;;20.83;45.83;102106.78;4987949;28;97172;-48
2022/07/06 07:51:33;;;;;;;1.43;0.43;;;;;;;20.88;45.60;102103.19;5000063;28;97257;-49
2022/07/06 07:53:58;;;;;;;1.13;0.50;;;;;;;20.99;45.48;102105.78;4995174;28;97088;-47
2022/07/06 07:56:23;;;;;;;2.57;0.80;;;;;;;21.07;45.27;102103.19;4998764;28;97481;-47
2022/07/06 07:58:49;;;;;;;0.80;0.40;;;;;;;21.11;45.07;102112.03;4997047;28;97231;-49
2022/07/06 08:01:14;;;;;;;1.63;0.40;;;;;;;21.16;45.25;102111.94;4996570;28;96820;-47
2022/07/06 08:03:40;;;;;;;1.23;0.50;;;;;;;21.28;45.15;102107.69;4997187;28;97656;-47
2022/07/06 08:06:05;;;;;;;1.53;0.60;;;;;;;21.38;45.26;102113.66;4993764;28;97535;-47
2022/07/06 08:08:31;;;;;;;1.23;0.70;;;;;;;21.46;44.86;102109.69;5002965;28;96932;-46
2022/07/06 08:10:56;;;;;;;1.43;0.60;;;;;;;21.57;44.69;102111.56;4994337;28;97049;-47
2022/07/06 08:13:21;;;;;;;1.17;0.50;;;;;;;21.62;44.69;102100.25;5000589;28;98639;-47
2022/07/06 08:15:47;;;;;;;1.73;0.50;;;;;;;21.60;44.52;102111.25;5004156;28;97050;-48
2022/07/06 08:18:13;;;;;;;1.23;0.47;;;;;;;21.55;44.69;102105.75;4999021;28;97233;-47
2022/07/06 08:20:38;;;;;;;2.77;0.60;;;;;;;21.52;44.60;102104.00;5000192;28;97383;-47
2022/07/06 08:23:04;;;;;;;1.13;0.43;;;;;;;21.50;44.71;102103.78;5002421;28;97017;-48
2022/07/06 08:25:31;;;;;;;0.60;0.50;;;;;;;21.55;44.58;102112.09;5002354;28;97740;-47
2022/07/06 08:27:56;;;;;;;0.97;0.50;;;;;;;21.63;44.63;102106.63;4999781;28;96977;-47
2022/07/06 08:30:21;;;;;;;2.30;0.60;;;;;;;21.64;44.31;102100.47;5003803;28;96849;-48
2022/07/06 08:32:47;;;;;;;1.23;0.63;;;;;;;21.61;44.39;102107.16;4998600;28;97421;-49
2022/07/06 08:35:12;;;;;;;1.43;0.60;;;;;;;21.60;44.36;102099.31;5001536;28;97322;-47
2022/07/06 08:37:38;;;;;;;0.73;0.50;;;;;;;21.60;44.40;102099.31;5000648;28;97033;-47
2022/07/06 08:40:05;;;;;;;2.17;0.87;;;;;;;21.62;44.24;102105.84;5000506;28;97275;-48
2022/07/06 08:42:34;;;;;;;1.80;0.40;;;;;;;21.61;44.11;102100.78;4998834;28;98192;-47
2022/07/06 08:45:01;;;;;;;0.90;0.50;;;;;;;21.62;44.27;102102.31;4999616;28;96778;-47
2022/07/06 08:47:27;;;;;;;1.20;0.63;;;;;;;21.76;44.01;102103.84;4996767;28;97016;-47
2022/07/06 08:49:54;;;;;;;1.57;0.50;;;;;;;21.89;43.68;102097.53;4997844;28;97284;-47
2022/07/06 08:52:21;;;;;;;1.00;0.40;;;;;;;21.98;43.21;102102.72;5001976;28;97222;-47
2022/07/06 08:54:46;;;;;;;1.07;0.40;;;;;;;22.05;43.11;102097.25;5000307;28;97297;-48
2022/07/06 08:57:12;;;;;;;1.00;0.60;;;;;;;22.11;42.60;102097.13;5004815;28;104382;-46
2022/07/06 08:59:39;;;;;;;1.00;0.43;;;;;;;22.06;42.57;102098.72;4997632;28;97191;-47
2022/07/06 09:02:04;;;;;;;4.60;0.67;;;;;;;22.07;42.61;102089.03;4996713;28;98015;-46
2022/07/06 09:04:33;;;;;;;0.60;0.30;;;;;;;22.05;42.58;102086.03;4996033;28;97180;-47
2022/07/06 09:06:58;;;;;;;1.27;0.53;;;;;;;22.05;42.60;102094.44;4997894;28;97275;-47
2022/07/06 09:09:24;;;;;;;0.70;0.50;;;;;;;22.00;42.56;102091.72;5001127;28;97274;-48
2022/07/06 09:11:51;;;;;;;1.10;0.50;;;;;;;21.94;42.66;102097.44;5000309;28;97507;-47
2022/07/06 09:14:18;;;;;;;1.20;0.40;;;;;;;21.86;42.72;102095.81;4996561;28;97129;-48
2022/07/06 09:16:46;;;;;;;1.20;0.40;;;;;;;21.80;42.68;102098.69;4999563;28;97750;-49
2022/07/06 09:19:11;;;;;;;2.10;0.50;;;;;;;21.69;42.82;102095.31;5000391;28;96723;-47
2022/07/06 09:21:38;;;;;;;1.17;0.50;;;;;;;21.63;42.84;102098.22;4998155;28;96944;-47
2022/07/06 09:24:09;;;;;;;1.57;0.50;;;;;;;21.60;42.78;102107.69;4999554;28;101598;-49
2022/07/06 09:26:35;;;;;;;1.83;0.50;;;;;;;21.54;43.00;102104.22;4998089;28;96778;-46
2022/07/06 09:29:00;;;;;;;0.90;0.40;;;;;;;21.55;43.07;102116.94;4999317;28;96772;-49
2022/07/06 09:31:26;;;;;;;1.33;0.50;;;;;;;21.57;42.80;102120.72;4996408;28;105181;-47
2022/07/06 09:33:55;;;;;;;1.43;0.40;;;;;;;21.51;42.34;102111.63;4998698;28;97116;-47
2022/07/06 09:36:49;;;;;;;1.47;0.50;;;;;;;21.51;41.92;102106.03;5002073;28;97257;-47
2022/07/06 09:39:24;;;;;;;1.50;0.60;;;;;;;21.60;42.08;102107.69;4999450;28;96951;-47
2022/07/06 09:41:55;;;;;;;1.37;0.57;;;;;;;21.71;42.34;102107.50;4993931;28;102050;-47
2022/07/06 09:44:28;;;;;;;1.23;0.50;;;;;;;21.90;41.90;102110.25;4997740;28;97085;-47
2022/07/06 09:47:00;;;;;;;0.80;0.40;;;;;;;22.09;41.56;102105.31;4997208;28;97291;-48
2022/07/06 09:49:26;;;;;;;1.03;0.50;;;;;;;22.26;41.62;102100.91;4996790;28;96924;-49
2022/07/06 09:52:03;;;;;;;0.70;0.40;;;;;;;22.41;40.75;102103.16;5001323;28;97294;-48
2022/07/06 09:54:29;;;;;;;0.70;0.50;;;;;;;22.56;41.39;102102.63;4996728;28;96792;-49
2022/07/06 09:56:56;;;;;;;1.20;0.50;;;;;;;22.61;41.07;102102.50;4996728;28;97180;-46
2022/07/06 09:59:26;;;;;;;2.97;0.60;;;;;;;22.56;40.97;102106.19;4996860;28;96895;-47
2022/07/06 10:01:57;;;;;;;1.00;0.50;;;;;;;22.41;41.03;102105.97;4994572;28;97112;-47
2022/07/06 10:04:23;;;;;;;1.47;0.53;;;;;;;22.28;41.43;102114.38;4996833;28;97427;-47
2022/07/06 10:06:49;;;;;;;1.00;0.50;;;;;;;22.13;41.50;102119.75;5000561;28;96782;-50
2022/07/06 10:09:15;;;;;;;1.10;0.40;;;;;;;22.01;41.50;102124.84;5000087;28;97330;-47
2022/07/06 10:11:49;;;;;;;1.83;0.50;;;;;;;21.91;41.52;102123.00;4998354;28;97278;-47
2022/07/06 10:14:20;;;;;;;1.80;0.50;;;;;;;21.83;41.62;102120.06;4998621;28;97460;-47
2022/07/06 10:16:47;;;;;;;1.73;0.47;;;;;;;21.78;41.75;102126.47;4999817;28;97324;-48
2022/07/06 10:19:13;;;;;;;4.47;0.70;;;;;;;21.75;41.94;102119.16;5013948;22;96990;-49
2022/07/06 10:21:40;;;;;;;0.87;0.40;;;;;;;21.79;41.77;102119.59;5001091;28;98547;-49
2022/07/06 10:24:07;;;;;;;0.80;0.47;;;;;;;21.81;41.85;102117.00;5001548;28;96769;-50
2022/07/06 10:26:34;;;;;;;1.43;0.50;;;;;;;21.87;41.90;102114.13;5006793;28;96733;-49
2022/07/06 10:29:04;;;;;;;0.50;0.30;;;;;;;21.92;41.85;102116.84;5001252;28;97039;-49
2022/07/06 10:31:31;;;;;;;1.23;0.50;;;;;;;22.00;41.86;102114.16;4985593;28;97079;-48
2022/07/06 10:33:58;;;;;;;0.60;0.40;;;;;;;22.05;41.72;102119.66;4985150;28;96804;-49
2022/07/06 10:36:24;;;;;;;1.33;0.47;;;;;;;22.14;41.67;102119.25;4987995;28;97142;-49
2022/07/06 10:38:52;;;;;;;3.70;0.60;;;;;;;22.23;41.58;102118.06;4987106;28;96881;-49
2022/07/06 10:41:19;;;;;;;1.00;0.70;;;;;;;22.32;41.29;102112.75;4986763;28;97354;-49
2022/07/06 10:43:45;;;;;;;4.40;0.73;;;;;;;22.42;41.34;102115.13;4985498;28;101534;-49
2022/07/06 10:46:20;;;;;;;1.93;0.47;;;;;;;22.56;40.76;102111.78;4986403;28;97706;-48
2022/07/06 10:48:47;;;;;;;1.03;0.50;;;;;;;22.63;40.89;102119.56;4987175;28;97016;-49
2022/07/06 10:51:33;;;;;;;1.63;0.40;;;;;;;22.70;40.39;102115.34;4987515;28;97474;-49
2022/07/06 10:54:05;;;;;;;1.00;0.40;;;;;;;22.80;40.06;102108.00;4985743;28;102224;-50
2022/07/06 10:56:38;;;;;;;0.60;0.47;;;;;;;22.83;39.74;102095.66;4986744;28;97261;-49
2022/07/06 10:59:10;;;;;;;3.90;0.43;;;;;;;22.83;39.70;102092.88;4986100;28;96949;-49
2022/07/06 11:01:35;;;;;;;3.33;0.50;;;;;;;22.92;40.37;102093.16;4986844;28;101821;-49
2022/07/06 11:04:02;;;;;;;0.60;0.50;;;;;;;23.13;40.23;102092.44;4984182;28;99800;-49
2022/07/06 11:06:31;;;;;;;1.27;0.50;;;;;;;23.27;39.88;102100.28;4986140;28;97155;-49
2022/07/06 11:09:08;;;;;;;1.43;0.40;;;;;;;23.40;39.17;102094.63;4985471;28;97762;-49
2022/07/06 11:11:33;;;;;;;1.57;0.43;;;;;;;23.43;39.35;102093.53;4986874;28;97104;-49
2022/07/06 11:14:04;;;;;;;0.77;0.40;;;;;;;23.39;39.23;102100.78;4987880;28;97222;-49
2022/07/06 11:16:36;;;;;;;2.10;0.40;;;;;;;23.34;39.37;102096.06;4985381;28;97063;-49
2022/07/06 11:19:06;;;;;;;0.97;0.40;;;;;;;23.30;39.34;102090.00;4986072;28;97011;-49
2022/07/06 11:21:36;;;;;;;1.20;0.40;;;;;;;23.17;38.84;102093.63;4986695;28;97000;-49
2022/07/06 11:24:03;;;;;;;1.80;0.40;;;;;;;23.06;39.26;102091.06;4981808;28;97350;-49
2022/07/06 11:26:30;;;;;;;1.17;0.40;;;;;;;22.95;39.39;102096.94;4985671;28;97191;-49